Friday, October 19, 2018, 3:14 AM EDT
Back to Local

KABE, Lehigh Valley International Airport

Location: Allentown, PA, United States Lat: 40.65
Local Time: 3:14 AM EDT ( 7:14 GMT) Lon: -75.45
Time Zone: US/Eastern Elev: 393 ft

Show me the last for .
Show Decoded

2018-10-19 02:51 METAR KABE 190651Z 21004KT 10SM CLR 03/M01 A3033 RMK AO2 SLP273 T00281006 =
2018-10-19 01:51 METAR KABE 190551Z 24003KT 10SM CLR 03/00 A3034 RMK AO2 SLP276 T00330000 10067
                 20017 56006 =
2018-10-19 00:51 METAR KABE 190451Z 00000KT 10SM CLR 03/M01 A3035 RMK AO2 SLP279 T00281006
                 401110022 =
2018-10-18 23:51 METAR KABE 190351Z 00000KT 10SM CLR 04/M01 A3034 RMK AO2 SLP278 T00391006 =
2018-10-18 22:51 METAR KABE 190251Z 29003KT 10SM CLR 03/M01 A3035 RMK AO2 SLP282 T00281006 52001
                 =
2018-10-18 21:51 METAR KABE 190151Z 24004KT 10SM CLR 04/M01 A3036 RMK AO2 SLP282 T00441011 =
2018-10-18 20:51 METAR KABE 190051Z 19003KT 10SM CLR 06/M01 A3035 RMK AO2 SLP280 T00561011 =
2018-10-18 19:51 METAR KABE 182351Z 26003KT 10SM CLR 07/M02 A3035 RMK AO2 SLP280 T00671017 10111
                 20067 50005 =
2018-10-18 18:51 METAR KABE 182251Z 24004KT 10SM CLR 07/M02 A3035 RMK AO2 SLP281 T00721022 =
2018-10-18 17:51 METAR KABE 182151Z 30008KT 10SM CLR 09/M03 A3035 RMK AO2 SLP279 T00941033 =
2018-10-18 16:51 METAR KABE 182051Z AUTO 28011G18KT 10SM CLR 11/M04 A3034 RMK AO2 SLP274
                 T01061039 56009 =
2018-10-18 15:51 METAR KABE 181951Z 28011G19KT 10SM CLR 11/M03 A3034 RMK AO2 SLP276 T01111028 =
2018-10-18 14:51 METAR KABE 181851Z VRB06KT 10SM CLR 11/M03 A3035 RMK AO2 SLP279 T01061033 =
2018-10-18 13:51 METAR KABE 181751Z 28007G16KT 10SM CLR 11/M03 A3036 RMK AO2 SLP284 T01061033
                 10106 20056 58008 =
2018-10-18 12:51 METAR KABE 181651Z 32008KT 10SM CLR 09/M04 A3038 RMK AO2 SLP288 T00941039 =
2018-10-18 11:51 METAR KABE 181551Z 31006G18KT 10SM CLR 09/M04 A3039 RMK AO2 SLP291 T00891044 =
2018-10-18 10:51 METAR KABE 181451Z 31011KT 10SM CLR 08/M04 A3039 RMK AO2 SLP292 T00781044 51019
                 =
2018-10-18 09:51 METAR KABE 181351Z 32013G22KT 10SM SCT050 07/M04 A3038 RMK AO2 SLP289 T00721044
                 =
2018-10-18 08:51 METAR KABE 181251Z 33010KT 10SM OVC055 07/M03 A3036 RMK AO2 SLP282 T00671028 =
2018-10-18 07:51 METAR KABE 181151Z 34003KT 10SM BKN050 OVC060 06/M02 A3033 RMK AO2 SLP273
                 T00561022 10072 20050 53025 =
2018-10-18 06:51 METAR KABE 181051Z 28008KT 260V330 10SM BKN060 06/M03 A3030 RMK AO2 SLP263
                 T00561033 =
2018-10-18 05:51 METAR KABE 180951Z 30009KT 10SM CLR 05/M03 A3028 RMK AO2 SLP256 T00501028 =
2018-10-18 04:51 METAR KABE 180851Z 26006KT 10SM CLR 05/M02 A3026 RMK AO2 SLP247 T00501022 53013
                 =
2018-10-18 03:51 METAR KABE 180751Z 29006KT 10SM FEW070 06/M03 A3024 RMK AO2 SLP240 T00561028 =

Support USWX by starting your Amazon purchase here.